sensor_id;sensor_type;location;lat;lon;timestamp;P1;durP1;ratioP1;P2;durP2;ratioP2
1062;SDS011;520;50.932;6.962;2023-04-03T00:00:44;3.10;;;2.40;;
1062;SDS011;520;50.932;6.962;2023-04-03T00:03:54;2.50;;;2.30;;
1062;SDS011;520;50.932;6.962;2023-04-03T00:06:43;3.47;;;2.90;;
1062;SDS011;520;50.932;6.962;2023-04-03T00:09:21;7.33;;;2.57;;
1062;SDS011;520;50.932;6.962;2023-04-03T00:16:07;5.17;;;2.90;;
1062;SDS011;520;50.932;6.962;2023-04-03T00:19:13;5.80;;;2.47;;
1062;SDS011;520;50.932;6.962;2023-04-03T00:22:47;2.20;;;2.00;;
1062;SDS011;520;50.932;6.962;2023-04-03T00:25:44;2.63;;;2.43;;
1062;SDS011;520;50.932;6.962;2023-04-03T00:29:00;5.23;;;2.47;;
1062;SDS011;520;50.932;6.962;2023-04-03T00:35:56;4.30;;;2.87;;
1062;SDS011;520;50.932;6.962;2023-04-03T00:38:33;4.70;;;2.70;;
1062;SDS011;520;50.932;6.962;2023-04-03T00:42:07;4.67;;;3.07;;
1062;SDS011;520;50.932;6.962;2023-04-03T00:47:24;2.60;;;2.40;;
1062;SDS011;520;50.932;6.962;2023-04-03T00:56:45;4.00;;;2.90;;
1062;SDS011;520;50.932;6.962;2023-04-03T00:59:43;3.33;;;2.97;;
1062;SDS011;520;50.932;6.962;2023-04-03T01:02:27;2.90;;;2.70;;
1062;SDS011;520;50.932;6.962;2023-04-03T01:05:10;3.50;;;3.20;;
1062;SDS011;520;50.932;6.962;2023-04-03T01:08:55;2.93;;;2.60;;
1062;SDS011;520;50.932;6.962;2023-04-03T01:15:30;3.17;;;2.50;;
1062;SDS011;520;50.932;6.962;2023-04-03T01:18:31;4.90;;;2.53;;
1062;SDS011;520;50.932;6.962;2023-04-03T01:21:58;2.30;;;2.20;;
1062;SDS011;520;50.932;6.962;2023-04-03T01:25:08;2.27;;;2.07;;
1062;SDS011;520;50.932;6.962;2023-04-03T01:27:58;2.07;;;1.87;;
1062;SDS011;520;50.932;6.962;2023-04-03T01:31:19;2.43;;;2.23;;
1062;SDS011;520;50.932;6.962;2023-04-03T01:34:30;2.83;;;2.10;;
1062;SDS011;520;50.932;6.962;2023-04-03T01:37:23;2.73;;;2.17;;
1062;SDS011;520;50.932;6.962;2023-04-03T01:39:57;3.23;;;2.23;;
1062;SDS011;520;50.932;6.962;2023-04-03T01:42:28;3.17;;;2.60;;
1062;SDS011;520;50.932;6.962;2023-04-03T01:45:53;4.40;;;2.30;;
1062;SDS011;520;50.932;6.962;2023-04-03T01:59:39;6.33;;;2.03;;
1062;SDS011;520;50.932;6.962;2023-04-03T02:02:23;2.80;;;2.60;;
1062;SDS011;520;50.932;6.962;2023-04-03T02:05:51;3.43;;;2.50;;
1062;SDS011;520;50.932;6.962;2023-04-03T02:08:42;3.07;;;2.70;;
1062;SDS011;520;50.932;6.962;2023-04-03T02:11:37;2.43;;;2.27;;
1062;SDS011;520;50.932;6.962;2023-04-03T02:14:10;4.67;;;3.00;;
1062;SDS011;520;50.932;6.962;2023-04-03T02:17:05;3.17;;;2.77;;
1062;SDS011;520;50.932;6.962;2023-04-03T02:20:07;2.90;;;2.70;;
1062;SDS011;520;50.932;6.962;2023-04-03T02:23:04;3.70;;;2.90;;
1062;SDS011;520;50.932;6.962;2023-04-03T02:26:33;3.27;;;2.97;;
1062;SDS011;520;50.932;6.962;2023-04-03T02:29:59;3.63;;;3.07;;
1062;SDS011;520;50.932;6.962;2023-04-03T02:33:05;5.43;;;3.60;;
1062;SDS011;520;50.932;6.962;2023-04-03T02:36:07;3.10;;;2.60;;
1062;SDS011;520;50.932;6.962;2023-04-03T02:39:25;4.20;;;3.30;;
1062;SDS011;520;50.932;6.962;2023-04-03T02:42:22;2.33;;;2.23;;
1062;SDS011;520;50.932;6.962;2023-04-03T02:45:40;6.00;;;3.00;;
1062;SDS011;520;50.932;6.962;2023-04-03T02:48:57;3.73;;;2.70;;
1062;SDS011;520;50.932;6.962;2023-04-03T02:54:54;3.80;;;3.07;;
1062;SDS011;520;50.932;6.962;2023-04-03T03:01:36;3.23;;;2.97;;
1062;SDS011;520;50.932;6.962;2023-04-03T03:04:12;3.27;;;2.97;;
1062;SDS011;520;50.932;6.962;2023-04-03T03:07:11;4.27;;;3.10;;
1062;SDS011;520;50.932;6.962;2023-04-03T03:09:49;3.23;;;2.93;;
1062;SDS011;520;50.932;6.962;2023-04-03T03:12:45;2.90;;;2.60;;
1062;SDS011;520;50.932;6.962;2023-04-03T03:19:06;2.87;;;2.63;;
1062;SDS011;520;50.932;6.962;2023-04-03T03:22:02;2.83;;;2.53;;
1062;SDS011;520;50.932;6.962;2023-04-03T03:24:37;3.70;;;3.30;;
1062;SDS011;520;50.932;6.962;2023-04-03T03:27:49;3.53;;;3.17;;
1062;SDS011;520;50.932;6.962;2023-04-03T03:30:49;2.60;;;2.50;;
1062;SDS011;520;50.932;6.962;2023-04-03T03:33:47;3.10;;;2.80;;
1062;SDS011;520;50.932;6.962;2023-04-03T03:36:42;4.27;;;2.90;;
1062;SDS011;520;50.932;6.962;2023-04-03T03:39:26;3.57;;;2.83;;
1062;SDS011;520;50.932;6.962;2023-04-03T03:42:07;2.60;;;2.40;;
1062;SDS011;520;50.932;6.962;2023-04-03T03:54:34;3.10;;;2.80;;
1062;SDS011;520;50.932;6.962;2023-04-03T03:57:23;7.60;;;3.43;;
1062;SDS011;520;50.932;6.962;2023-04-03T04:00:22;3.93;;;2.83;;
1062;SDS011;520;50.932;6.962;2023-04-03T04:10:20;3.03;;;2.83;;
1062;SDS011;520;50.932;6.962;2023-04-03T04:13:32;2.93;;;2.40;;
1062;SDS011;520;50.932;6.962;2023-04-03T04:16:45;7.73;;;2.53;;
1062;SDS011;520;50.932;6.962;2023-04-03T04:19:41;6.20;;;3.10;;
1062;SDS011;520;50.932;6.962;2023-04-03T04:22:26;2.53;;;2.30;;
1062;SDS011;520;50.932;6.962;2023-04-03T04:25:46;2.57;;;2.37;;
1062;SDS011;520;50.932;6.962;2023-04-03T04:28:44;5.30;;;2.60;;
1062;SDS011;520;50.932;6.962;2023-04-03T04:31:28;4.30;;;2.90;;
1062;SDS011;520;50.932;6.962;2023-04-03T04:37:57;3.50;;;2.30;;
1062;SDS011;520;50.932;6.962;2023-04-03T04:41:15;3.00;;;2.70;;
1062;SDS011;520;50.932;6.962;2023-04-03T04:44:20;2.07;;;1.93;;
1062;SDS011;520;50.932;6.962;2023-04-03T04:47:53;1.80;;;1.70;;
1062;SDS011;520;50.932;6.962;2023-04-03T04:51:21;1.80;;;1.70;;
1062;SDS011;520;50.932;6.962;2023-04-03T04:54:22;4.77;;;2.77;;
1062;SDS011;520;50.932;6.962;2023-04-03T05:04:40;2.93;;;2.37;;
1062;SDS011;520;50.932;6.962;2023-04-03T05:07:35;5.27;;;2.07;;
1062;SDS011;520;50.932;6.962;2023-04-03T05:10:03;2.17;;;1.90;;
1062;SDS011;520;50.932;6.962;2023-04-03T05:13:18;2.80;;;2.37;;
1062;SDS011;520;50.932;6.962;2023-04-03T05:20:02;3.43;;;1.80;;
1062;SDS011;520;50.932;6.962;2023-04-03T05:25:51;2.37;;;2.17;;
1062;SDS011;520;50.932;6.962;2023-04-03T05:32:49;2.40;;;2.20;;
1062;SDS011;520;50.932;6.962;2023-04-03T05:35:36;2.13;;;2.03;;
1062;SDS011;520;50.932;6.962;2023-04-03T05:38:51;2.30;;;2.00;;
1062;SDS011;520;50.932;6.962;2023-04-03T05:41:43;4.00;;;2.37;;
1062;SDS011;520;50.932;6.962;2023-04-03T05:44:42;3.53;;;2.23;;
1062;SDS011;520;50.932;6.962;2023-04-03T05:48:08;3.60;;;2.30;;
1062;SDS011;520;50.932;6.962;2023-04-03T05:50:48;3.13;;;2.20;;
1062;SDS011;520;50.932;6.962;2023-04-03T05:53:25;2.83;;;2.60;;
1062;SDS011;520;50.932;6.962;2023-04-03T05:56:19;5.47;;;2.03;;
1062;SDS011;520;50.932;6.962;2023-04-03T05:59:21;2.40;;;2.10;;
1062;SDS011;520;50.932;6.962;2023-04-03T06:01:59;4.40;;;2.53;;
1062;SDS011;520;50.932;6.962;2023-04-03T06:12:27;3.40;;;2.03;;
1062;SDS011;520;50.932;6.962;2023-04-03T06:15:18;2.47;;;1.70;;
1062;SDS011;520;50.932;6.962;2023-04-03T06:18:18;3.70;;;2.10;;
1062;SDS011;520;50.932;6.962;2023-04-03T06:21:20;4.77;;;2.67;;
1062;SDS011;520;50.932;6.962;2023-04-03T06:23:52;1.70;;;1.60;;
1062;SDS011;520;50.932;6.962;2023-04-03T06:30:49;2.03;;;1.57;;
1062;SDS011;520;50.932;6.962;2023-04-03T06:33:58;2.07;;;1.67;;
1062;SDS011;520;50.932;6.962;2023-04-03T06:36:58;2.13;;;1.73;;
1062;SDS011;520;50.932;6.962;2023-04-03T06:39:53;6.00;;;2.30;;
1062;SDS011;520;50.932;6.962;2023-04-03T06:43:09;4.93;;;2.80;;
1062;SDS011;520;50.932;6.962;2023-04-03T06:45:47;3.03;;;1.80;;
1062;SDS011;520;50.932;6.962;2023-04-03T06:48:52;3.10;;;1.90;;
1062;SDS011;520;50.932;6.962;2023-04-03T06:52:04;1.53;;;1.30;;
1062;SDS011;520;50.932;6.962;2023-04-03T06:54:52;2.37;;;1.60;;
1062;SDS011;520;50.932;6.962;2023-04-03T07:01:34;1.73;;;1.53;;
1062;SDS011;520;50.932;6.962;2023-04-03T07:04:39;3.13;;;1.70;;
1062;SDS011;520;50.932;6.962;2023-04-03T07:07:41;1.77;;;1.63;;
1062;SDS011;520;50.932;6.962;2023-04-03T07:10:40;3.07;;;1.53;;
1062;SDS011;520;50.932;6.962;2023-04-03T07:13:54;4.60;;;1.67;;
1062;SDS011;520;50.932;6.962;2023-04-03T07:16:59;3.63;;;1.80;;
1062;SDS011;520;50.932;6.962;2023-04-03T07:20:25;1.27;;;1.10;;
1062;SDS011;520;50.932;6.962;2023-04-03T07:24:13;4.20;;;1.60;;
1062;SDS011;520;50.932;6.962;2023-04-03T07:31:10;3.43;;;1.80;;
1062;SDS011;520;50.932;6.962;2023-04-03T07:37:57;4.23;;;1.60;;
1062;SDS011;520;50.932;6.962;2023-04-03T07:47:19;3.03;;;1.57;;
1062;SDS011;520;50.932;6.962;2023-04-03T07:50:44;1.73;;;1.30;;
1062;SDS011;520;50.932;6.962;2023-04-03T07:53:25;2.20;;;1.70;;
1062;SDS011;520;50.932;6.962;2023-04-03T08:00:05;3.70;;;1.80;;
1062;SDS011;520;50.932;6.962;2023-04-03T08:03:25;2.17;;;1.50;;
1062;SDS011;520;50.932;6.962;2023-04-03T08:06:15;1.80;;;1.40;;
1062;SDS011;520;50.932;6.962;2023-04-03T08:09:20;3.50;;;2.07;;
1062;SDS011;520;50.932;6.962;2023-04-03T08:12:36;5.07;;;2.03;;
1062;SDS011;520;50.932;6.962;2023-04-03T08:15:20;3.70;;;1.40;;
1062;SDS011;520;50.932;6.962;2023-04-03T08:18:23;2.63;;;1.57;;
1062;SDS011;520;50.932;6.962;2023-04-03T08:21:22;2.60;;;1.43;;
1062;SDS011;520;50.932;6.962;2023-04-03T08:25:00;1.33;;;1.23;;
1062;SDS011;520;50.932;6.962;2023-04-03T08:28:24;2.73;;;1.43;;
1062;SDS011;520;50.932;6.962;2023-04-03T08:31:16;1.73;;;1.27;;
1062;SDS011;520;50.932;6.962;2023-04-03T08:34:13;3.57;;;1.40;;
1062;SDS011;520;50.932;6.962;2023-04-03T08:37:26;4.67;;;1.77;;
1062;SDS011;520;50.932;6.962;2023-04-03T08:40:25;2.30;;;1.30;;
1062;SDS011;520;50.932;6.962;2023-04-03T08:43:30;1.00;;;0.90;;
1062;SDS011;520;50.932;6.962;2023-04-03T08:53:34;1.70;;;1.13;;
1062;SDS011;520;50.932;6.962;2023-04-03T08:59:54;1.70;;;1.10;;
1062;SDS011;520;50.932;6.962;2023-04-03T09:06:23;1.53;;;1.20;;
1062;SDS011;520;50.932;6.962;2023-04-03T09:09:15;1.87;;;1.30;;
1062;SDS011;520;50.932;6.962;2023-04-03T09:12:35;2.00;;;1.00;;
1062;SDS011;520;50.932;6.962;2023-04-03T09:15:41;1.73;;;1.17;;
1062;SDS011;520;50.932;6.962;2023-04-03T09:18:42;2.90;;;1.10;;
1062;SDS011;520;50.932;6.962;2023-04-03T09:21:48;2.03;;;0.93;;
1062;SDS011;520;50.932;6.962;2023-04-03T09:28:15;2.00;;;1.00;;
1062;SDS011;520;50.932;6.962;2023-04-03T09:31:05;2.10;;;1.40;;
1062;SDS011;520;50.932;6.962;2023-04-03T09:34:28;1.00;;;0.90;;
1062;SDS011;520;50.932;6.962;2023-04-03T09:37:38;1.70;;;1.10;;
1062;SDS011;520;50.932;6.962;2023-04-03T09:55:21;2.53;;;0.73;;
1062;SDS011;520;50.932;6.962;2023-04-03T09:58:00;1.20;;;1.03;;
1062;SDS011;520;50.932;6.962;2023-04-03T10:08:36;1.80;;;1.20;;
1062;SDS011;520;50.932;6.962;2023-04-03T10:11:34;3.43;;;1.60;;
1062;SDS011;520;50.932;6.962;2023-04-03T10:28:11;1.03;;;1.00;;
1062;SDS011;520;50.932;6.962;2023-04-03T10:31:29;2.87;;;0.60;;
1062;SDS011;520;50.932;6.962;2023-04-03T10:45:31;1.93;;;1.03;;
1062;SDS011;520;50.932;6.962;2023-04-03T10:52:09;2.20;;;0.90;;
1062;SDS011;520;50.932;6.962;2023-04-03T10:58:26;1.17;;;1.07;;
1062;SDS011;520;50.932;6.962;2023-04-03T11:01:21;1.00;;;0.77;;
1062;SDS011;520;50.932;6.962;2023-04-03T11:08:42;2.37;;;1.00;;
1062;SDS011;520;50.932;6.962;2023-04-03T11:11:42;2.40;;;0.90;;
1062;SDS011;520;50.932;6.962;2023-04-03T11:14:53;2.60;;;1.10;;
1062;SDS011;520;50.932;6.962;2023-04-03T11:17:41;1.17;;;0.70;;
1062;SDS011;520;50.932;6.962;2023-04-03T11:21:08;1.70;;;1.10;;
1062;SDS011;520;50.932;6.962;2023-04-03T11:24:25;1.00;;;0.90;;
1062;SDS011;520;50.932;6.962;2023-04-03T11:27:19;1.30;;;1.00;;
1062;SDS011;520;50.932;6.962;2023-04-03T11:34:16;3.33;;;1.10;;
1062;SDS011;520;50.932;6.962;2023-04-03T11:40:26;0.97;;;0.70;;
1062;SDS011;520;50.932;6.962;2023-04-03T11:43:24;1.20;;;0.73;;
1062;SDS011;520;50.932;6.962;2023-04-03T11:46:10;3.30;;;1.77;;
1062;SDS011;520;50.932;6.962;2023-04-03T11:48:58;1.50;;;1.07;;
1062;SDS011;520;50.932;6.962;2023-04-03T11:51:41;2.07;;;0.97;;
1062;SDS011;520;50.932;6.962;2023-04-03T12:07:13;1.33;;;1.10;;
1062;SDS011;520;50.932;6.962;2023-04-03T12:10:25;1.13;;;0.77;;
1062;SDS011;520;50.932;6.962;2023-04-03T12:13:25;0.90;;;0.73;;
1062;SDS011;520;50.932;6.962;2023-04-03T12:16:02;1.27;;;1.10;;
1062;SDS011;520;50.932;6.962;2023-04-03T12:18:43;0.60;;;0.60;;
1062;SDS011;520;50.932;6.962;2023-04-03T12:24:37;1.63;;;0.80;;
1062;SDS011;520;50.932;6.962;2023-04-03T12:27:47;1.97;;;0.67;;
1062;SDS011;520;50.932;6.962;2023-04-03T12:31:01;1.30;;;0.90;;
1062;SDS011;520;50.932;6.962;2023-04-03T12:40:11;1.70;;;0.83;;
1062;SDS011;520;50.932;6.962;2023-04-03T12:50:28;2.30;;;0.77;;
1062;SDS011;520;50.932;6.962;2023-04-03T12:53:18;1.10;;;0.80;;
1062;SDS011;520;50.932;6.962;2023-04-03T12:56:26;1.53;;;1.23;;
1062;SDS011;520;50.932;6.962;2023-04-03T12:59:44;0.97;;;0.87;;
1062;SDS011;520;50.932;6.962;2023-04-03T13:03:01;1.73;;;0.70;;
1062;SDS011;520;50.932;6.962;2023-04-03T13:05:50;1.30;;;1.20;;
1062;SDS011;520;50.932;6.962;2023-04-03T13:12:14;1.00;;;0.90;;
1062;SDS011;520;50.932;6.962;2023-04-03T13:18:25;1.30;;;1.10;;
1062;SDS011;520;50.932;6.962;2023-04-03T13:24:22;0.80;;;0.67;;
1062;SDS011;520;50.932;6.962;2023-04-03T13:27:18;1.40;;;1.30;;
1062;SDS011;520;50.932;6.962;2023-04-03T13:30:37;2.47;;;1.10;;
1062;SDS011;520;50.932;6.962;2023-04-03T13:33:32;2.60;;;1.13;;
1062;SDS011;520;50.932;6.962;2023-04-03T13:43:46;2.40;;;1.40;;
1062;SDS011;520;50.932;6.962;2023-04-03T13:46:37;4.03;;;1.03;;
1062;SDS011;520;50.932;6.962;2023-04-03T13:49:35;2.40;;;1.10;;
1062;SDS011;520;50.932;6.962;2023-04-03T13:58:37;1.10;;;1.00;;
1062;SDS011;520;50.932;6.962;2023-04-03T14:01:25;1.00;;;0.90;;
1062;SDS011;520;50.932;6.962;2023-04-03T14:07:36;1.33;;;1.17;;
1062;SDS011;520;50.932;6.962;2023-04-03T14:10:19;1.57;;;1.13;;
1062;SDS011;520;50.932;6.962;2023-04-03T14:16:06;2.67;;;1.17;;
1062;SDS011;520;50.932;6.962;2023-04-03T14:19:32;2.70;;;1.80;;
1062;SDS011;520;50.932;6.962;2023-04-03T14:22:43;1.50;;;1.40;;
1062;SDS011;520;50.932;6.962;2023-04-03T14:25:27;0.87;;;0.87;;
1062;SDS011;520;50.932;6.962;2023-04-03T14:28:22;3.87;;;3.50;;
1062;SDS011;520;50.932;6.962;2023-04-03T14:31:21;2.03;;;1.20;;
1062;SDS011;520;50.932;6.962;2023-04-03T14:34:22;2.23;;;1.53;;
1062;SDS011;520;50.932;6.962;2023-04-03T14:37:02;2.07;;;1.03;;
1062;SDS011;520;50.932;6.962;2023-04-03T14:40:13;2.43;;;1.23;;
1062;SDS011;520;50.932;6.962;2023-04-03T14:42:48;2.93;;;1.50;;
1062;SDS011;520;50.932;6.962;2023-04-03T14:45:34;2.50;;;1.37;;
1062;SDS011;520;50.932;6.962;2023-04-03T14:48:38;1.07;;;0.93;;
1062;SDS011;520;50.932;6.962;2023-04-03T14:51:21;0.97;;;0.90;;
1062;SDS011;520;50.932;6.962;2023-04-03T14:54:35;1.87;;;1.50;;
1062;SDS011;520;50.932;6.962;2023-04-03T14:57:40;2.80;;;1.00;;
1062;SDS011;520;50.932;6.962;2023-04-03T15:00:54;2.03;;;1.17;;
1062;SDS011;520;50.932;6.962;2023-04-03T15:03:39;1.43;;;0.87;;
1062;SDS011;520;50.932;6.962;2023-04-03T15:06:21;1.73;;;1.40;;
1062;SDS011;520;50.932;6.962;2023-04-03T15:09:02;2.03;;;1.03;;
1062;SDS011;520;50.932;6.962;2023-04-03T15:11:40;1.73;;;1.10;;
1062;SDS011;520;50.932;6.962;2023-04-03T15:14:18;2.00;;;0.93;;
1062;SDS011;520;50.932;6.962;2023-04-03T15:17:15;2.30;;;1.10;;
1062;SDS011;520;50.932;6.962;2023-04-03T15:20:17;1.37;;;1.27;;
1062;SDS011;520;50.932;6.962;2023-04-03T15:23:02;1.47;;;0.87;;
1062;SDS011;520;50.932;6.962;2023-04-03T15:25:32;1.50;;;1.20;;
1062;SDS011;520;50.932;6.962;2023-04-03T15:28:39;1.37;;;1.00;;
1062;SDS011;520;50.932;6.962;2023-04-03T15:31:33;4.70;;;1.37;;
1062;SDS011;520;50.932;6.962;2023-04-03T15:34:23;1.30;;;1.20;;
1062;SDS011;520;50.932;6.962;2023-04-03T15:36:57;1.57;;;1.10;;
1062;SDS011;520;50.932;6.962;2023-04-03T15:39:35;2.50;;;1.20;;
1062;SDS011;520;50.932;6.962;2023-04-03T15:42:13;1.07;;;0.90;;
1062;SDS011;520;50.932;6.962;2023-04-03T15:44:59;1.90;;;1.10;;
1062;SDS011;520;50.932;6.962;2023-04-03T15:47:35;1.43;;;1.30;;
1062;SDS011;520;50.932;6.962;2023-04-03T15:50:23;1.60;;;1.27;;
1062;SDS011;520;50.932;6.962;2023-04-03T15:52:58;1.10;;;1.00;;
1062;SDS011;520;50.932;6.962;2023-04-03T15:55:25;1.40;;;1.30;;
1062;SDS011;520;50.932;6.962;2023-04-03T15:58:02;4.33;;;1.30;;
1062;SDS011;520;50.932;6.962;2023-04-03T16:01:02;1.77;;;1.40;;
1062;SDS011;520;50.932;6.962;2023-04-03T16:04:24;1.77;;;1.50;;
1062;SDS011;520;50.932;6.962;2023-04-03T16:07:03;1.40;;;1.30;;
1062;SDS011;520;50.932;6.962;2023-04-03T16:09:46;2.03;;;1.43;;
1062;SDS011;520;50.932;6.962;2023-04-03T16:12:26;1.63;;;1.03;;
1062;SDS011;520;50.932;6.962;2023-04-03T16:15:13;2.20;;;1.00;;
1062;SDS011;520;50.932;6.962;2023-04-03T16:18:12;1.77;;;0.77;;
1062;SDS011;520;50.932;6.962;2023-04-03T16:21:20;2.10;;;1.37;;
1062;SDS011;520;50.932;6.962;2023-04-03T16:23:59;1.10;;;1.00;;
1062;SDS011;520;50.932;6.962;2023-04-03T16:26:30;1.27;;;1.07;;
1062;SDS011;520;50.932;6.962;2023-04-03T16:29:01;1.53;;;0.90;;
1062;SDS011;520;50.932;6.962;2023-04-03T16:31:36;1.53;;;1.27;;
1062;SDS011;520;50.932;6.962;2023-04-03T16:34:31;2.70;;;1.67;;
1062;SDS011;520;50.932;6.962;2023-04-03T16:37:10;2.33;;;1.47;;
1062;SDS011;520;50.932;6.962;2023-04-03T16:39:52;1.47;;;1.10;;
1062;SDS011;520;50.932;6.962;2023-04-03T16:42:41;1.20;;;1.10;;
1062;SDS011;520;50.932;6.962;2023-04-03T16:45:28;2.67;;;1.10;;
1062;SDS011;520;50.932;6.962;2023-04-03T16:48:24;1.70;;;1.00;;
1062;SDS011;520;50.932;6.962;2023-04-03T16:50:57;3.17;;;1.40;;
1062;SDS011;520;50.932;6.962;2023-04-03T16:53:36;1.80;;;1.40;;
1062;SDS011;520;50.932;6.962;2023-04-03T16:56:08;1.73;;;1.50;;
1062;SDS011;520;50.932;6.962;2023-04-03T16:58:50;1.07;;;0.97;;
1062;SDS011;520;50.932;6.962;2023-04-03T17:01:27;1.10;;;1.00;;
1062;SDS011;520;50.932;6.962;2023-04-03T17:04:10;2.33;;;1.30;;
1062;SDS011;520;50.932;6.962;2023-04-03T17:12:51;4.10;;;1.10;;
1062;SDS011;520;50.932;6.962;2023-04-03T17:15:40;1.73;;;1.37;;
1062;SDS011;520;50.932;6.962;2023-04-03T17:18:56;2.83;;;1.20;;
1062;SDS011;520;50.932;6.962;2023-04-03T17:21:38;1.93;;;1.27;;
1062;SDS011;520;50.932;6.962;2023-04-03T17:24:15;1.90;;;1.33;;
1062;SDS011;520;50.932;6.962;2023-04-03T17:26:49;1.63;;;1.23;;
1062;SDS011;520;50.932;6.962;2023-04-03T17:36:03;2.23;;;1.43;;
1062;SDS011;520;50.932;6.962;2023-04-03T17:39:23;2.73;;;1.13;;
1062;SDS011;520;50.932;6.962;2023-04-03T17:46:07;1.67;;;1.43;;
1062;SDS011;520;50.932;6.962;2023-04-03T17:49:34;1.83;;;1.47;;
1062;SDS011;520;50.932;6.962;2023-04-03T17:52:31;2.23;;;1.40;;
1062;SDS011;520;50.932;6.962;2023-04-03T17:55:47;1.90;;;1.40;;
1062;SDS011;520;50.932;6.962;2023-04-03T17:58:45;1.37;;;1.27;;
1062;SDS011;520;50.932;6.962;2023-04-03T18:01:55;3.63;;;1.30;;
1062;SDS011;520;50.932;6.962;2023-04-03T18:08:32;1.50;;;1.40;;
1062;SDS011;520;50.932;6.962;2023-04-03T18:15:04;5.17;;;1.57;;
1062;SDS011;520;50.932;6.962;2023-04-03T18:25:40;1.70;;;1.60;;
1062;SDS011;520;50.932;6.962;2023-04-03T18:28:27;3.33;;;1.80;;
1062;SDS011;520;50.932;6.962;2023-04-03T18:31:29;2.80;;;1.63;;
1062;SDS011;520;50.932;6.962;2023-04-03T18:34:02;2.10;;;1.27;;
1062;SDS011;520;50.932;6.962;2023-04-03T18:36:36;5.63;;;1.50;;
1062;SDS011;520;50.932;6.962;2023-04-03T18:39:51;3.13;;;1.40;;
1062;SDS011;520;50.932;6.962;2023-04-03T18:42:22;1.80;;;1.47;;
1062;SDS011;520;50.932;6.962;2023-04-03T18:45:42;2.50;;;1.33;;
1062;SDS011;520;50.932;6.962;2023-04-03T18:52:01;2.47;;;1.40;;
1062;SDS011;520;50.932;6.962;2023-04-03T18:54:56;1.80;;;1.40;;
1062;SDS011;520;50.932;6.962;2023-04-03T18:57:45;2.53;;;1.83;;
1062;SDS011;520;50.932;6.962;2023-04-03T19:04:07;2.10;;;1.53;;
1062;SDS011;520;50.932;6.962;2023-04-03T19:07:06;2.27;;;1.60;;
1062;SDS011;520;50.932;6.962;2023-04-03T19:10:01;1.33;;;1.23;;
1062;SDS011;520;50.932;6.962;2023-04-03T19:12:38;3.87;;;1.77;;
1062;SDS011;520;50.932;6.962;2023-04-03T19:15:11;1.27;;;1.00;;
1062;SDS011;520;50.932;6.962;2023-04-03T19:17:55;2.20;;;1.50;;
1062;SDS011;520;50.932;6.962;2023-04-03T19:23:52;2.80;;;1.60;;
1062;SDS011;520;50.932;6.962;2023-04-03T19:30:43;3.07;;;1.77;;
1062;SDS011;520;50.932;6.962;2023-04-03T19:33:45;2.83;;;1.33;;
1062;SDS011;520;50.932;6.962;2023-04-03T19:36:36;1.53;;;1.43;;
1062;SDS011;520;50.932;6.962;2023-04-03T19:39:35;2.33;;;1.10;;
1062;SDS011;520;50.932;6.962;2023-04-03T19:42:39;1.33;;;1.17;;
1062;SDS011;520;50.932;6.962;2023-04-03T19:45:48;5.00;;;1.57;;
1062;SDS011;520;50.932;6.962;2023-04-03T19:51:30;1.60;;;1.40;;
1062;SDS011;520;50.932;6.962;2023-04-03T19:54:01;3.17;;;1.37;;
1062;SDS011;520;50.932;6.962;2023-04-03T19:57:00;1.97;;;1.20;;
1062;SDS011;520;50.932;6.962;2023-04-03T19:59:53;4.63;;;1.70;;
1062;SDS011;520;50.932;6.962;2023-04-03T20:02:42;2.27;;;1.37;;
1062;SDS011;520;50.932;6.962;2023-04-03T20:05:26;2.03;;;1.40;;
1062;SDS011;520;50.932;6.962;2023-04-03T20:08:23;2.17;;;1.40;;
1062;SDS011;520;50.932;6.962;2023-04-03T20:11:12;2.07;;;1.27;;
1062;SDS011;520;50.932;6.962;2023-04-03T20:13:53;1.37;;;1.27;;
1062;SDS011;520;50.932;6.962;2023-04-03T20:16:57;3.20;;;1.60;;
1062;SDS011;520;50.932;6.962;2023-04-03T20:19:34;4.80;;;1.50;;
1062;SDS011;520;50.932;6.962;2023-04-03T20:22:38;1.90;;;1.40;;
1062;SDS011;520;50.932;6.962;2023-04-03T20:25:12;2.23;;;1.40;;
1062;SDS011;520;50.932;6.962;2023-04-03T20:28:06;3.43;;;1.53;;
1062;SDS011;520;50.932;6.962;2023-04-03T20:30:38;3.83;;;1.80;;
1062;SDS011;520;50.932;6.962;2023-04-03T20:33:21;4.67;;;1.50;;
1062;SDS011;520;50.932;6.962;2023-04-03T20:38:59;3.60;;;1.70;;
1062;SDS011;520;50.932;6.962;2023-04-03T20:41:29;1.87;;;1.70;;
1062;SDS011;520;50.932;6.962;2023-04-03T20:44:03;1.50;;;1.37;;
1062;SDS011;520;50.932;6.962;2023-04-03T20:46:36;2.07;;;1.70;;
1062;SDS011;520;50.932;6.962;2023-04-03T20:49:17;3.23;;;1.40;;
1062;SDS011;520;50.932;6.962;2023-04-03T20:51:44;2.53;;;1.40;;
1062;SDS011;520;50.932;6.962;2023-04-03T20:54:11;2.07;;;1.83;;
1062;SDS011;520;50.932;6.962;2023-04-03T20:56:38;1.43;;;1.20;;
1062;SDS011;520;50.932;6.962;2023-04-03T20:59:05;2.33;;;1.67;;
1062;SDS011;520;50.932;6.962;2023-04-03T21:01:56;2.60;;;1.40;;
1062;SDS011;520;50.932;6.962;2023-04-03T21:04:30;3.23;;;1.70;;
1062;SDS011;520;50.932;6.962;2023-04-03T21:19:20;1.93;;;1.53;;
1062;SDS011;520;50.932;6.962;2023-04-03T21:22:00;4.03;;;1.50;;
1062;SDS011;520;50.932;6.962;2023-04-03T21:24:30;4.23;;;2.07;;
1062;SDS011;520;50.932;6.962;2023-04-03T21:27:10;2.43;;;1.33;;
1062;SDS011;520;50.932;6.962;2023-04-03T21:29:52;1.80;;;1.70;;
1062;SDS011;520;50.932;6.962;2023-04-03T21:32:26;2.13;;;1.50;;
1062;SDS011;520;50.932;6.962;2023-04-03T21:35:05;1.70;;;1.60;;
1062;SDS011;520;50.932;6.962;2023-04-03T21:40:11;3.10;;;1.60;;
1062;SDS011;520;50.932;6.962;2023-04-03T21:42:52;4.00;;;1.47;;
1062;SDS011;520;50.932;6.962;2023-04-03T21:45:25;1.47;;;1.37;;
1062;SDS011;520;50.932;6.962;2023-04-03T21:47:59;4.20;;;2.40;;
1062;SDS011;520;50.932;6.962;2023-04-03T21:50:34;2.20;;;1.30;;
1062;SDS011;520;50.932;6.962;2023-04-03T21:53:07;4.83;;;1.50;;
1062;SDS011;520;50.932;6.962;2023-04-03T21:55:38;2.43;;;1.30;;
1062;SDS011;520;50.932;6.962;2023-04-03T21:58:50;5.17;;;1.60;;
1062;SDS011;520;50.932;6.962;2023-04-03T22:01:19;2.90;;;1.53;;
1062;SDS011;520;50.932;6.962;2023-04-03T22:04:01;1.97;;;1.80;;
1062;SDS011;520;50.932;6.962;2023-04-03T22:06:33;4.93;;;2.00;;
1062;SDS011;520;50.932;6.962;2023-04-03T22:09:04;1.50;;;1.40;;
1062;SDS011;520;50.932;6.962;2023-04-03T22:11:34;2.00;;;1.77;;
1062;SDS011;520;50.932;6.962;2023-04-03T22:14:09;5.07;;;1.40;;
1062;SDS011;520;50.932;6.962;2023-04-03T22:16:43;3.10;;;1.37;;
1062;SDS011;520;50.932;6.962;2023-04-03T22:19:20;1.57;;;1.23;;
1062;SDS011;520;50.932;6.962;2023-04-03T22:21:58;1.70;;;1.57;;
1062;SDS011;520;50.932;6.962;2023-04-03T22:24:33;1.47;;;1.20;;
1062;SDS011;520;50.932;6.962;2023-04-03T22:27:06;3.57;;;1.80;;
1062;SDS011;520;50.932;6.962;2023-04-03T22:29:41;3.20;;;1.33;;
1062;SDS011;520;50.932;6.962;2023-04-03T22:32:38;1.57;;;1.43;;
1062;SDS011;520;50.932;6.962;2023-04-03T22:35:16;2.13;;;1.43;;
1062;SDS011;520;50.932;6.962;2023-04-03T22:38:10;2.90;;;2.30;;
1062;SDS011;520;50.932;6.962;2023-04-03T22:41:21;3.30;;;1.57;;
1062;SDS011;520;50.932;6.962;2023-04-03T22:44:10;2.37;;;1.70;;
1062;SDS011;520;50.932;6.962;2023-04-03T22:46:46;2.17;;;1.60;;
1062;SDS011;520;50.932;6.962;2023-04-03T22:49:15;2.40;;;1.70;;
1062;SDS011;520;50.932;6.962;2023-04-03T22:51:48;2.20;;;1.70;;
1062;SDS011;520;50.932;6.962;2023-04-03T22:54:26;1.80;;;1.50;;
1062;SDS011;520;50.932;6.962;2023-04-03T22:57:19;3.40;;;1.83;;
1062;SDS011;520;50.932;6.962;2023-04-03T23:00:21;3.73;;;1.60;;
1062;SDS011;520;50.932;6.962;2023-04-03T23:03:01;1.67;;;1.50;;
1062;SDS011;520;50.932;6.962;2023-04-03T23:05:48;4.53;;;1.70;;
1062;SDS011;520;50.932;6.962;2023-04-03T23:08:27;2.90;;;1.63;;
1062;SDS011;520;50.932;6.962;2023-04-03T23:11:09;5.27;;;1.80;;
1062;SDS011;520;50.932;6.962;2023-04-03T23:13:41;3.20;;;1.70;;
1062;SDS011;520;50.932;6.962;2023-04-03T23:16:15;1.90;;;1.47;;
1062;SDS011;520;50.932;6.962;2023-04-03T23:19:05;1.57;;;1.30;;
1062;SDS011;520;50.932;6.962;2023-04-03T23:21:43;2.57;;;1.77;;
1062;SDS011;520;50.932;6.962;2023-04-03T23:24:20;1.87;;;1.77;;
1062;SDS011;520;50.932;6.962;2023-04-03T23:26:53;1.70;;;1.60;;
1062;SDS011;520;50.932;6.962;2023-04-03T23:29:26;3.70;;;1.87;;
1062;SDS011;520;50.932;6.962;2023-04-03T23:32:11;6.67;;;1.60;;
1062;SDS011;520;50.932;6.962;2023-04-03T23:34:54;3.30;;;1.93;;